sensor_id;sensor_type;location;lat;lon;timestamp;P1;durP1;ratioP1;P2;durP2;ratioP2
17151;SDS011;8691;50.828;4.700;2022-12-15T00:01:09;31.77;;;20.40;;
17151;SDS011;8691;50.828;4.700;2022-12-15T00:03:54;37.17;;;27.63;;
17151;SDS011;8691;50.828;4.700;2022-12-15T00:06:39;28.27;;;19.77;;
17151;SDS011;8691;50.828;4.700;2022-12-15T00:09:23;25.17;;;18.43;;
17151;SDS011;8691;50.828;4.700;2022-12-15T00:12:08;36.12;;;27.70;;
17151;SDS011;8691;50.828;4.700;2022-12-15T00:14:53;30.23;;;19.70;;
17151;SDS011;8691;50.828;4.700;2022-12-15T00:17:38;32.10;;;19.40;;
17151;SDS011;8691;50.828;4.700;2022-12-15T00:20:22;27.43;;;17.77;;
17151;SDS011;8691;50.828;4.700;2022-12-15T00:23:08;25.47;;;17.20;;
17151;SDS011;8691;50.828;4.700;2022-12-15T00:25:52;25.10;;;16.40;;
17151;SDS011;8691;50.828;4.700;2022-12-15T00:28:37;26.40;;;16.90;;
17151;SDS011;8691;50.828;4.700;2022-12-15T00:31:22;24.73;;;17.30;;
17151;SDS011;8691;50.828;4.700;2022-12-15T00:34:08;27.93;;;18.00;;
17151;SDS011;8691;50.828;4.700;2022-12-15T00:36:51;35.33;;;27.30;;
17151;SDS011;8691;50.828;4.700;2022-12-15T00:39:36;27.23;;;19.50;;
17151;SDS011;8691;50.828;4.700;2022-12-15T00:42:03;36.03;;;27.33;;
17151;SDS011;8691;50.828;4.700;2022-12-15T00:44:31;36.67;;;28.08;;
17151;SDS011;8691;50.828;4.700;2022-12-15T00:46:58;33.78;;;26.70;;
17151;SDS011;8691;50.828;4.700;2022-12-15T00:49:26;33.60;;;26.07;;
17151;SDS011;8691;50.828;4.700;2022-12-15T00:52:10;28.93;;;19.80;;
17151;SDS011;8691;50.828;4.700;2022-12-15T00:54:54;24.73;;;18.23;;
17151;SDS011;8691;50.828;4.700;2022-12-15T00:57:39;26.57;;;16.93;;
17151;SDS011;8691;50.828;4.700;2022-12-15T01:00:25;24.93;;;16.93;;
17151;SDS011;8691;50.828;4.700;2022-12-15T01:03:14;27.00;;;17.17;;
17151;SDS011;8691;50.828;4.700;2022-12-15T01:05:57;28.57;;;17.73;;
17151;SDS011;8691;50.828;4.700;2022-12-15T01:08:42;26.20;;;17.30;;
17151;SDS011;8691;50.828;4.700;2022-12-15T01:11:26;27.87;;;17.23;;
17151;SDS011;8691;50.828;4.700;2022-12-15T01:14:11;35.33;;;27.27;;
17151;SDS011;8691;50.828;4.700;2022-12-15T01:16:56;32.00;;;20.70;;
17151;SDS011;8691;50.828;4.700;2022-12-15T01:19:41;27.20;;;18.90;;
17151;SDS011;8691;50.828;4.700;2022-12-15T01:22:25;36.07;;;28.10;;
17151;SDS011;8691;50.828;4.700;2022-12-15T01:24:52;36.58;;;28.33;;
17151;SDS011;8691;50.828;4.700;2022-12-15T01:27:19;37.17;;;28.70;;
17151;SDS011;8691;50.828;4.700;2022-12-15T01:29:46;36.10;;;28.92;;
17151;SDS011;8691;50.828;4.700;2022-12-15T01:32:13;32.42;;;26.83;;
17151;SDS011;8691;50.828;4.700;2022-12-15T01:34:41;32.67;;;26.83;;
17151;SDS011;8691;50.828;4.700;2022-12-15T01:37:08;35.23;;;27.50;;
17151;SDS011;8691;50.828;4.700;2022-12-15T01:39:35;36.20;;;28.08;;
17151;SDS011;8691;50.828;4.700;2022-12-15T01:42:19;27.00;;;19.97;;
17151;SDS011;8691;50.828;4.700;2022-12-15T01:44:48;34.33;;;26.97;;
17151;SDS011;8691;50.828;4.700;2022-12-15T01:47:13;34.78;;;27.40;;
17151;SDS011;8691;50.828;4.700;2022-12-15T01:49:40;36.03;;;28.12;;
17151;SDS011;8691;50.828;4.700;2022-12-15T01:52:07;36.97;;;29.48;;
17151;SDS011;8691;50.828;4.700;2022-12-15T01:54:38;36.25;;;28.50;;
17151;SDS011;8691;50.828;4.700;2022-12-15T01:57:05;36.20;;;28.87;;
17151;SDS011;8691;50.828;4.700;2022-12-15T01:59:33;35.53;;;28.23;;
17151;SDS011;8691;50.828;4.700;2022-12-15T02:01:58;37.23;;;29.83;;
17151;SDS011;8691;50.828;4.700;2022-12-15T02:04:25;40.00;;;29.97;;
17151;SDS011;8691;50.828;4.700;2022-12-15T02:06:51;35.30;;;21.47;;
17151;SDS011;8691;50.828;4.700;2022-12-15T02:09:19;38.53;;;30.13;;
17151;SDS011;8691;50.828;4.700;2022-12-15T02:11:56;28.40;;;19.90;;
17151;SDS011;8691;50.828;4.700;2022-12-15T02:17:06;38.28;;;30.08;;
17151;SDS011;8691;50.828;4.700;2022-12-15T02:19:39;43.92;;;33.17;;
17151;SDS011;8691;50.828;4.700;2022-12-15T02:28:29;43.45;;;32.62;;
17151;SDS011;8691;50.828;4.700;2022-12-15T02:30:59;43.53;;;33.30;;
17151;SDS011;8691;50.828;4.700;2022-12-15T02:36:26;42.60;;;31.10;;
17151;SDS011;8691;50.828;4.700;2022-12-15T02:38:52;39.33;;;30.53;;
17151;SDS011;8691;50.828;4.700;2022-12-15T02:44:01;41.58;;;31.17;;
17151;SDS011;8691;50.828;4.700;2022-12-15T02:46:33;43.17;;;31.55;;
17151;SDS011;8691;50.828;4.700;2022-12-15T02:48:59;30.73;;;22.43;;
17151;SDS011;8691;50.828;4.700;2022-12-15T02:51:38;40.23;;;31.10;;
17151;SDS011;8691;50.828;4.700;2022-12-15T02:54:13;39.07;;;31.43;;
17151;SDS011;8691;50.828;4.700;2022-12-15T02:59:41;40.37;;;30.40;;
17151;SDS011;8691;50.828;4.700;2022-12-15T03:02:05;39.17;;;31.00;;
17151;SDS011;8691;50.828;4.700;2022-12-15T03:04:32;38.92;;;30.75;;
17151;SDS011;8691;50.828;4.700;2022-12-15T03:07:01;40.97;;;32.33;;
17151;SDS011;8691;50.828;4.700;2022-12-15T03:09:26;41.03;;;31.35;;
17151;SDS011;8691;50.828;4.700;2022-12-15T03:11:53;43.47;;;32.80;;
17151;SDS011;8691;50.828;4.700;2022-12-15T03:14:20;40.67;;;31.62;;
17151;SDS011;8691;50.828;4.700;2022-12-15T03:16:47;40.08;;;31.20;;
17151;SDS011;8691;50.828;4.700;2022-12-15T03:19:14;42.15;;;31.38;;
17151;SDS011;8691;50.828;4.700;2022-12-15T03:21:41;39.03;;;30.92;;
17151;SDS011;8691;50.828;4.700;2022-12-15T03:24:08;40.13;;;31.77;;
17151;SDS011;8691;50.828;4.700;2022-12-15T03:26:34;43.57;;;32.33;;
17151;SDS011;8691;50.828;4.700;2022-12-15T03:29:02;42.55;;;31.92;;
17151;SDS011;8691;50.828;4.700;2022-12-15T03:31:29;40.55;;;33.03;;
17151;SDS011;8691;50.828;4.700;2022-12-15T03:33:57;40.35;;;32.22;;
17151;SDS011;8691;50.828;4.700;2022-12-15T03:36:24;40.70;;;32.40;;
17151;SDS011;8691;50.828;4.700;2022-12-15T03:38:51;41.15;;;32.15;;
17151;SDS011;8691;50.828;4.700;2022-12-15T03:41:18;40.53;;;32.20;;
17151;SDS011;8691;50.828;4.700;2022-12-15T03:43:45;40.72;;;32.55;;
17151;SDS011;8691;50.828;4.700;2022-12-15T03:46:12;39.67;;;31.70;;
17151;SDS011;8691;50.828;4.700;2022-12-15T03:48:40;41.03;;;31.60;;
17151;SDS011;8691;50.828;4.700;2022-12-15T03:51:07;39.63;;;32.03;;
17151;SDS011;8691;50.828;4.700;2022-12-15T03:53:33;39.70;;;31.20;;
17151;SDS011;8691;50.828;4.700;2022-12-15T03:56:00;40.67;;;30.90;;
17151;SDS011;8691;50.828;4.700;2022-12-15T03:58:27;39.03;;;30.83;;
17151;SDS011;8691;50.828;4.700;2022-12-15T04:00:54;35.83;;;28.80;;
17151;SDS011;8691;50.828;4.700;2022-12-15T04:03:21;39.62;;;30.23;;
17151;SDS011;8691;50.828;4.700;2022-12-15T04:05:48;41.30;;;31.20;;
17151;SDS011;8691;50.828;4.700;2022-12-15T04:08:15;40.27;;;31.23;;
17151;SDS011;8691;50.828;4.700;2022-12-15T04:10:42;40.75;;;31.30;;
17151;SDS011;8691;50.828;4.700;2022-12-15T04:13:10;40.97;;;31.53;;
17151;SDS011;8691;50.828;4.700;2022-12-15T04:15:37;42.83;;;33.67;;
17151;SDS011;8691;50.828;4.700;2022-12-15T04:18:04;42.37;;;32.87;;
17151;SDS011;8691;50.828;4.700;2022-12-15T04:20:29;42.57;;;33.10;;
17151;SDS011;8691;50.828;4.700;2022-12-15T04:22:56;45.03;;;34.07;;
17151;SDS011;8691;50.828;4.700;2022-12-15T04:25:23;41.67;;;32.60;;
17151;SDS011;8691;50.828;4.700;2022-12-15T04:28:08;42.67;;;34.85;;
17151;SDS011;8691;50.828;4.700;2022-12-15T04:31:00;42.10;;;34.50;;
17151;SDS011;8691;50.828;4.700;2022-12-15T04:33:41;39.53;;;33.33;;
17151;SDS011;8691;50.828;4.700;2022-12-15T04:36:25;37.73;;;24.60;;
17151;SDS011;8691;50.828;4.700;2022-12-15T04:39:10;31.87;;;22.67;;
17151;SDS011;8691;50.828;4.700;2022-12-15T04:41:56;34.17;;;21.83;;
17151;SDS011;8691;50.828;4.700;2022-12-15T04:44:40;33.03;;;21.70;;
17151;SDS011;8691;50.828;4.700;2022-12-15T04:47:25;33.07;;;21.57;;
17151;SDS011;8691;50.828;4.700;2022-12-15T04:50:09;35.20;;;23.10;;
17151;SDS011;8691;50.828;4.700;2022-12-15T04:52:54;33.73;;;21.53;;
17151;SDS011;8691;50.828;4.700;2022-12-15T04:55:39;37.27;;;22.00;;
17151;SDS011;8691;50.828;4.700;2022-12-15T04:58:24;34.60;;;21.13;;
17151;SDS011;8691;50.828;4.700;2022-12-15T05:01:09;31.23;;;22.47;;
17151;SDS011;8691;50.828;4.700;2022-12-15T05:03:53;31.57;;;20.93;;
17151;SDS011;8691;50.828;4.700;2022-12-15T05:06:39;36.37;;;22.20;;
17151;SDS011;8691;50.828;4.700;2022-12-15T05:09:24;46.97;;;35.30;;
17151;SDS011;8691;50.828;4.700;2022-12-15T05:12:09;35.17;;;24.07;;
17151;SDS011;8691;50.828;4.700;2022-12-15T05:14:54;38.77;;;22.93;;
17151;SDS011;8691;50.828;4.700;2022-12-15T05:17:39;33.90;;;22.40;;
17151;SDS011;8691;50.828;4.700;2022-12-15T05:20:25;36.20;;;22.80;;
17151;SDS011;8691;50.828;4.700;2022-12-15T05:23:09;35.80;;;22.37;;
17151;SDS011;8691;50.828;4.700;2022-12-15T05:25:54;45.83;;;34.13;;
17151;SDS011;8691;50.828;4.700;2022-12-15T05:28:39;38.47;;;24.33;;
17151;SDS011;8691;50.828;4.700;2022-12-15T05:31:23;32.80;;;22.30;;
17151;SDS011;8691;50.828;4.700;2022-12-15T05:34:08;33.70;;;21.60;;
17151;SDS011;8691;50.828;4.700;2022-12-15T05:36:35;44.80;;;32.38;;
17151;SDS011;8691;50.828;4.700;2022-12-15T05:39:02;46.20;;;34.40;;
17151;SDS011;8691;50.828;4.700;2022-12-15T05:41:29;42.90;;;34.10;;
17151;SDS011;8691;50.828;4.700;2022-12-15T05:43:56;45.33;;;35.30;;
17151;SDS011;8691;50.828;4.700;2022-12-15T05:46:23;47.70;;;36.45;;
17151;SDS011;8691;50.828;4.700;2022-12-15T05:48:50;52.85;;;39.92;;
17151;SDS011;8691;50.828;4.700;2022-12-15T05:51:17;43.03;;;34.47;;
17151;SDS011;8691;50.828;4.700;2022-12-15T05:53:44;42.70;;;34.25;;
17151;SDS011;8691;50.828;4.700;2022-12-15T05:56:11;44.20;;;34.17;;
17151;SDS011;8691;50.828;4.700;2022-12-15T05:58:38;43.43;;;34.80;;
17151;SDS011;8691;50.828;4.700;2022-12-15T06:01:12;42.95;;;33.67;;
17151;SDS011;8691;50.828;4.700;2022-12-15T06:03:41;44.70;;;35.08;;
17151;SDS011;8691;50.828;4.700;2022-12-15T06:06:08;46.53;;;36.83;;
17151;SDS011;8691;50.828;4.700;2022-12-15T06:08:35;47.47;;;35.17;;
17151;SDS011;8691;50.828;4.700;2022-12-15T06:11:01;35.97;;;25.77;;
17151;SDS011;8691;50.828;4.700;2022-12-15T06:13:28;43.03;;;33.53;;
17151;SDS011;8691;50.828;4.700;2022-12-15T06:15:55;46.47;;;34.87;;
17151;SDS011;8691;50.828;4.700;2022-12-15T06:18:22;43.80;;;34.58;;
17151;SDS011;8691;50.828;4.700;2022-12-15T06:20:49;43.62;;;34.50;;
17151;SDS011;8691;50.828;4.700;2022-12-15T06:23:15;46.17;;;34.78;;
17151;SDS011;8691;50.828;4.700;2022-12-15T06:25:43;46.08;;;34.80;;
17151;SDS011;8691;50.828;4.700;2022-12-15T06:28:10;43.90;;;33.17;;
17151;SDS011;8691;50.828;4.700;2022-12-15T06:30:37;42.77;;;34.00;;
17151;SDS011;8691;50.828;4.700;2022-12-15T06:33:04;43.62;;;34.65;;
17151;SDS011;8691;50.828;4.700;2022-12-15T06:35:34;45.00;;;34.63;;
17151;SDS011;8691;50.828;4.700;2022-12-15T06:37:58;45.08;;;34.40;;
17151;SDS011;8691;50.828;4.700;2022-12-15T06:40:25;44.08;;;35.00;;
17151;SDS011;8691;50.828;4.700;2022-12-15T06:42:52;49.90;;;35.67;;
17151;SDS011;8691;50.828;4.700;2022-12-15T06:45:19;38.50;;;26.30;;
17151;SDS011;8691;50.828;4.700;2022-12-15T06:47:47;46.90;;;36.80;;
17151;SDS011;8691;50.828;4.700;2022-12-15T06:50:15;45.75;;;36.78;;
17151;SDS011;8691;50.828;4.700;2022-12-15T06:52:42;48.53;;;37.30;;
17151;SDS011;8691;50.828;4.700;2022-12-15T06:55:09;49.40;;;35.37;;
17151;SDS011;8691;50.828;4.700;2022-12-15T06:57:36;46.93;;;35.87;;
17151;SDS011;8691;50.828;4.700;2022-12-15T07:00:03;46.17;;;36.07;;
17151;SDS011;8691;50.828;4.700;2022-12-15T07:02:30;53.60;;;39.45;;
17151;SDS011;8691;50.828;4.700;2022-12-15T07:04:57;45.15;;;35.80;;
17151;SDS011;8691;50.828;4.700;2022-12-15T07:07:24;48.15;;;36.55;;
17151;SDS011;8691;50.828;4.700;2022-12-15T07:09:51;35.27;;;24.07;;
17151;SDS011;8691;50.828;4.700;2022-12-15T07:12:18;42.17;;;33.53;;
17151;SDS011;8691;50.828;4.700;2022-12-15T07:14:45;44.00;;;35.12;;
17151;SDS011;8691;50.828;4.700;2022-12-15T07:17:12;47.83;;;37.12;;
17151;SDS011;8691;50.828;4.700;2022-12-15T07:19:38;47.72;;;36.40;;
17151;SDS011;8691;50.828;4.700;2022-12-15T07:22:05;48.65;;;37.33;;
17151;SDS011;8691;50.828;4.700;2022-12-15T07:24:33;47.28;;;35.58;;
17151;SDS011;8691;50.828;4.700;2022-12-15T07:26:59;49.17;;;36.72;;
17151;SDS011;8691;50.828;4.700;2022-12-15T07:29:26;48.50;;;37.40;;
17151;SDS011;8691;50.828;4.700;2022-12-15T07:31:54;47.47;;;37.55;;
17151;SDS011;8691;50.828;4.700;2022-12-15T07:34:21;47.12;;;36.40;;
17151;SDS011;8691;50.828;4.700;2022-12-15T07:36:48;48.70;;;35.80;;
17151;SDS011;8691;50.828;4.700;2022-12-15T07:39:15;48.42;;;35.70;;
17151;SDS011;8691;50.828;4.700;2022-12-15T07:41:42;46.15;;;34.40;;
17151;SDS011;8691;50.828;4.700;2022-12-15T07:44:09;41.03;;;33.70;;
17151;SDS011;8691;50.828;4.700;2022-12-15T07:46:36;43.40;;;33.33;;
17151;SDS011;8691;50.828;4.700;2022-12-15T07:49:03;45.75;;;34.35;;
17151;SDS011;8691;50.828;4.700;2022-12-15T07:51:30;43.33;;;33.87;;
17151;SDS011;8691;50.828;4.700;2022-12-15T07:53:57;43.83;;;32.57;;
17151;SDS011;8691;50.828;4.700;2022-12-15T07:56:24;43.65;;;32.58;;
17151;SDS011;8691;50.828;4.700;2022-12-15T07:58:51;40.07;;;25.27;;
17151;SDS011;8691;50.828;4.700;2022-12-15T08:01:18;42.00;;;31.90;;
17151;SDS011;8691;50.828;4.700;2022-12-15T08:03:45;43.47;;;32.33;;
17151;SDS011;8691;50.828;4.700;2022-12-15T08:06:12;43.93;;;33.00;;
17151;SDS011;8691;50.828;4.700;2022-12-15T08:08:39;42.33;;;31.40;;
17151;SDS011;8691;50.828;4.700;2022-12-15T08:11:07;104.85;;;64.30;;
17151;SDS011;8691;50.828;4.700;2022-12-15T08:13:34;59.85;;;40.65;;
17151;SDS011;8691;50.828;4.700;2022-12-15T08:16:02;44.72;;;33.75;;
17151;SDS011;8691;50.828;4.700;2022-12-15T08:18:29;44.22;;;32.47;;
17151;SDS011;8691;50.828;4.700;2022-12-15T08:21:03;47.30;;;34.37;;
17151;SDS011;8691;50.828;4.700;2022-12-15T08:23:31;44.67;;;33.28;;
17151;SDS011;8691;50.828;4.700;2022-12-15T08:26:04;36.20;;;23.40;;
17151;SDS011;8691;50.828;4.700;2022-12-15T08:28:27;43.60;;;33.92;;
17151;SDS011;8691;50.828;4.700;2022-12-15T08:30:54;40.20;;;29.33;;
17151;SDS011;8691;50.828;4.700;2022-12-15T08:33:22;46.95;;;33.33;;
17151;SDS011;8691;50.828;4.700;2022-12-15T08:35:49;35.80;;;24.30;;
17151;SDS011;8691;50.828;4.700;2022-12-15T08:38:17;47.20;;;34.55;;
17151;SDS011;8691;50.828;4.700;2022-12-15T08:40:45;45.38;;;33.85;;
17151;SDS011;8691;50.828;4.700;2022-12-15T08:43:12;43.53;;;34.03;;
17151;SDS011;8691;50.828;4.700;2022-12-15T08:45:40;47.17;;;35.33;;
17151;SDS011;8691;50.828;4.700;2022-12-15T08:48:07;45.90;;;34.78;;
17151;SDS011;8691;50.828;4.700;2022-12-15T08:50:34;46.30;;;35.50;;
17151;SDS011;8691;50.828;4.700;2022-12-15T08:53:01;47.10;;;35.53;;
17151;SDS011;8691;50.828;4.700;2022-12-15T08:55:29;43.88;;;34.47;;
17151;SDS011;8691;50.828;4.700;2022-12-15T08:57:56;44.08;;;35.53;;
17151;SDS011;8691;50.828;4.700;2022-12-15T09:00:23;37.23;;;27.37;;
17151;SDS011;8691;50.828;4.700;2022-12-15T09:02:50;41.53;;;33.87;;
17151;SDS011;8691;50.828;4.700;2022-12-15T09:05:18;45.28;;;34.42;;
17151;SDS011;8691;50.828;4.700;2022-12-15T09:07:46;54.72;;;43.45;;
17151;SDS011;8691;50.828;4.700;2022-12-15T09:10:13;54.83;;;45.78;;
17151;SDS011;8691;50.828;4.700;2022-12-15T09:12:41;49.45;;;40.83;;
17151;SDS011;8691;50.828;4.700;2022-12-15T09:15:08;43.57;;;37.20;;
17151;SDS011;8691;50.828;4.700;2022-12-15T09:17:35;41.92;;;35.15;;
17151;SDS011;8691;50.828;4.700;2022-12-15T09:20:02;41.42;;;35.05;;
17151;SDS011;8691;50.828;4.700;2022-12-15T09:22:30;39.57;;;29.70;;
17151;SDS011;8691;50.828;4.700;2022-12-15T09:24:57;45.03;;;36.22;;
17151;SDS011;8691;50.828;4.700;2022-12-15T09:27:24;46.62;;;36.15;;
17151;SDS011;8691;50.828;4.700;2022-12-15T09:29:50;43.78;;;35.47;;
17151;SDS011;8691;50.828;4.700;2022-12-15T09:32:17;41.60;;;35.03;;
17151;SDS011;8691;50.828;4.700;2022-12-15T09:34:44;41.50;;;34.50;;
17151;SDS011;8691;50.828;4.700;2022-12-15T09:37:11;42.15;;;33.42;;
17151;SDS011;8691;50.828;4.700;2022-12-15T09:39:38;44.50;;;34.55;;
17151;SDS011;8691;50.828;4.700;2022-12-15T09:42:05;33.97;;;25.93;;
17151;SDS011;8691;50.828;4.700;2022-12-15T09:44:32;39.70;;;33.30;;
17151;SDS011;8691;50.828;4.700;2022-12-15T09:49:46;41.40;;;32.17;;
17151;SDS011;8691;50.828;4.700;2022-12-15T09:52:24;38.77;;;32.20;;
17151;SDS011;8691;50.828;4.700;2022-12-15T09:54:56;40.17;;;33.70;;
17151;SDS011;8691;50.828;4.700;2022-12-15T09:57:39;37.62;;;31.08;;
17151;SDS011;8691;50.828;4.700;2022-12-15T10:00:13;36.08;;;31.27;;
17151;SDS011;8691;50.828;4.700;2022-12-15T10:05:27;36.03;;;30.23;;
17151;SDS011;8691;50.828;4.700;2022-12-15T10:07:56;32.83;;;25.33;;
17151;SDS011;8691;50.828;4.700;2022-12-15T10:10:31;35.93;;;29.90;;
17151;SDS011;8691;50.828;4.700;2022-12-15T10:13:03;37.20;;;29.67;;
17151;SDS011;8691;50.828;4.700;2022-12-15T10:15:26;35.90;;;31.03;;
17151;SDS011;8691;50.828;4.700;2022-12-15T10:18:04;35.13;;;31.23;;
17151;SDS011;8691;50.828;4.700;2022-12-15T10:20:29;38.65;;;32.00;;
17151;SDS011;8691;50.828;4.700;2022-12-15T10:23:10;39.08;;;31.35;;
17151;SDS011;8691;50.828;4.700;2022-12-15T10:25:36;33.12;;;29.08;;
17151;SDS011;8691;50.828;4.700;2022-12-15T10:31:31;38.00;;;29.83;;
17151;SDS011;8691;50.828;4.700;2022-12-15T10:33:23;35.03;;;31.25;;
17151;SDS011;8691;50.828;4.700;2022-12-15T10:35:53;34.92;;;30.20;;
17151;SDS011;8691;50.828;4.700;2022-12-15T10:38:32;35.60;;;29.17;;
17151;SDS011;8691;50.828;4.700;2022-12-15T10:40:52;36.23;;;29.80;;
17151;SDS011;8691;50.828;4.700;2022-12-15T10:43:31;33.03;;;29.23;;
17151;SDS011;8691;50.828;4.700;2022-12-15T10:48:45;35.12;;;29.08;;
17151;SDS011;8691;50.828;4.700;2022-12-15T10:56:27;36.67;;;31.85;;
17151;SDS011;8691;50.828;4.700;2022-12-15T10:58:55;37.92;;;32.33;;
17151;SDS011;8691;50.828;4.700;2022-12-15T11:01:25;36.38;;;32.08;;
17151;SDS011;8691;50.828;4.700;2022-12-15T11:03:51;36.65;;;30.80;;
17151;SDS011;8691;50.828;4.700;2022-12-15T11:06:22;39.20;;;31.43;;
17151;SDS011;8691;50.828;4.700;2022-12-15T11:08:50;43.37;;;31.93;;
17151;SDS011;8691;50.828;4.700;2022-12-15T11:11:28;41.65;;;32.20;;
17151;SDS011;8691;50.828;4.700;2022-12-15T11:14:15;38.73;;;31.07;;
17151;SDS011;8691;50.828;4.700;2022-12-15T11:16:51;33.93;;;25.17;;
17151;SDS011;8691;50.828;4.700;2022-12-15T11:19:15;36.73;;;30.77;;
17151;SDS011;8691;50.828;4.700;2022-12-15T11:21:43;37.73;;;30.40;;
17151;SDS011;8691;50.828;4.700;2022-12-15T11:24:12;39.22;;;30.50;;
17151;SDS011;8691;50.828;4.700;2022-12-15T11:26:52;39.55;;;30.65;;
17151;SDS011;8691;50.828;4.700;2022-12-15T11:29:56;42.08;;;32.15;;
17151;SDS011;8691;50.828;4.700;2022-12-15T11:32:05;46.85;;;32.67;;
17151;SDS011;8691;50.828;4.700;2022-12-15T11:37:19;42.75;;;31.60;;
17151;SDS011;8691;50.828;4.700;2022-12-15T11:45:24;36.43;;;23.23;;
17151;SDS011;8691;50.828;4.700;2022-12-15T11:48:11;34.78;;;28.33;;
17151;SDS011;8691;50.828;4.700;2022-12-15T11:50:46;41.97;;;30.85;;
17151;SDS011;8691;50.828;4.700;2022-12-15T11:53:13;33.40;;;23.77;;
17151;SDS011;8691;50.828;4.700;2022-12-15T11:56:09;41.67;;;29.95;;
17151;SDS011;8691;50.828;4.700;2022-12-15T11:58:49;34.97;;;28.60;;
17151;SDS011;8691;50.828;4.700;2022-12-15T12:01:38;37.53;;;28.55;;
17151;SDS011;8691;50.828;4.700;2022-12-15T12:04:19;40.00;;;29.15;;
17151;SDS011;8691;50.828;4.700;2022-12-15T12:07:06;36.15;;;29.52;;
17151;SDS011;8691;50.828;4.700;2022-12-15T12:09:36;38.73;;;29.17;;
17151;SDS011;8691;50.828;4.700;2022-12-15T12:14:44;40.20;;;30.05;;
17151;SDS011;8691;50.828;4.700;2022-12-15T12:20:18;35.80;;;24.13;;
17151;SDS011;8691;50.828;4.700;2022-12-15T12:25:23;41.30;;;30.08;;
17151;SDS011;8691;50.828;4.700;2022-12-15T12:27:53;36.60;;;29.27;;
17151;SDS011;8691;50.828;4.700;2022-12-15T12:41:00;34.67;;;25.73;;
17151;SDS011;8691;50.828;4.700;2022-12-15T12:45:58;21.87;;;18.23;;
17151;SDS011;8691;50.828;4.700;2022-12-15T12:48:25;20.83;;;18.17;;
17151;SDS011;8691;50.828;4.700;2022-12-15T12:50:50;22.33;;;17.83;;
17151;SDS011;8691;50.828;4.700;2022-12-15T12:53:26;21.75;;;17.35;;
17151;SDS011;8691;50.828;4.700;2022-12-15T12:55:50;19.07;;;14.70;;
17151;SDS011;8691;50.828;4.700;2022-12-15T12:58:30;16.50;;;13.77;;
17151;SDS011;8691;50.828;4.700;2022-12-15T13:01:03;23.07;;;15.10;;
17151;SDS011;8691;50.828;4.700;2022-12-15T13:03:28;18.27;;;14.13;;
17151;SDS011;8691;50.828;4.700;2022-12-15T13:05:55;21.30;;;14.60;;
17151;SDS011;8691;50.828;4.700;2022-12-15T13:08:26;20.80;;;14.87;;
17151;SDS011;8691;50.828;4.700;2022-12-15T13:10:52;20.70;;;14.83;;
17151;SDS011;8691;50.828;4.700;2022-12-15T13:15:59;22.83;;;15.27;;
17151;SDS011;8691;50.828;4.700;2022-12-15T13:18:25;25.97;;;19.37;;
17151;SDS011;8691;50.828;4.700;2022-12-15T13:20:55;17.90;;;15.60;;
17151;SDS011;8691;50.828;4.700;2022-12-15T13:33:43;15.50;;;11.00;;
17151;SDS011;8691;50.828;4.700;2022-12-15T13:36:09;19.07;;;12.40;;
17151;SDS011;8691;50.828;4.700;2022-12-15T13:38:52;19.00;;;12.20;;
17151;SDS011;8691;50.828;4.700;2022-12-15T13:41:23;17.67;;;12.57;;
17151;SDS011;8691;50.828;4.700;2022-12-15T13:43:50;20.03;;;12.13;;
17151;SDS011;8691;50.828;4.700;2022-12-15T13:46:27;15.83;;;11.27;;
17151;SDS011;8691;50.828;4.700;2022-12-15T13:48:44;18.17;;;11.47;;
17151;SDS011;8691;50.828;4.700;2022-12-15T13:53:42;17.53;;;12.10;;
17151;SDS011;8691;50.828;4.700;2022-12-15T13:56:16;14.93;;;11.43;;
17151;SDS011;8691;50.828;4.700;2022-12-15T13:58:45;16.53;;;12.57;;
17151;SDS011;8691;50.828;4.700;2022-12-15T14:01:17;24.08;;;17.73;;
17151;SDS011;8691;50.828;4.700;2022-12-15T14:03:56;20.90;;;17.10;;
17151;SDS011;8691;50.828;4.700;2022-12-15T14:06:26;20.65;;;17.42;;
17151;SDS011;8691;50.828;4.700;2022-12-15T14:08:51;21.20;;;14.70;;
17151;SDS011;8691;50.828;4.700;2022-12-15T14:11:22;15.53;;;13.03;;
17151;SDS011;8691;50.828;4.700;2022-12-15T14:13:48;17.80;;;12.23;;
17151;SDS011;8691;50.828;4.700;2022-12-15T14:16:19;20.37;;;14.03;;
17151;SDS011;8691;50.828;4.700;2022-12-15T14:19:01;21.87;;;15.77;;
17151;SDS011;8691;50.828;4.700;2022-12-15T14:21:21;20.93;;;14.57;;
17151;SDS011;8691;50.828;4.700;2022-12-15T14:23:47;19.93;;;15.23;;
17151;SDS011;8691;50.828;4.700;2022-12-15T14:26:15;25.43;;;15.90;;
17151;SDS011;8691;50.828;4.700;2022-12-15T14:28:42;24.73;;;15.53;;
17151;SDS011;8691;50.828;4.700;2022-12-15T14:31:12;23.17;;;15.77;;
17151;SDS011;8691;50.828;4.700;2022-12-15T14:33:38;27.10;;;16.17;;
17151;SDS011;8691;50.828;4.700;2022-12-15T14:36:05;25.67;;;17.03;;
17151;SDS011;8691;50.828;4.700;2022-12-15T14:38:35;30.63;;;24.67;;
17151;SDS011;8691;50.828;4.700;2022-12-15T14:40:59;33.13;;;23.07;;
17151;SDS011;8691;50.828;4.700;2022-12-15T14:43:31;30.40;;;20.33;;
17151;SDS011;8691;50.828;4.700;2022-12-15T14:46:05;29.40;;;18.07;;
17151;SDS011;8691;50.828;4.700;2022-12-15T14:48:34;25.77;;;17.27;;
17151;SDS011;8691;50.828;4.700;2022-12-15T14:50:59;30.27;;;18.60;;
17151;SDS011;8691;50.828;4.700;2022-12-15T14:53:28;36.57;;;17.77;;
17151;SDS011;8691;50.828;4.700;2022-12-15T14:55:53;28.53;;;16.23;;
17151;SDS011;8691;50.828;4.700;2022-12-15T15:00:55;36.93;;;16.37;;
17151;SDS011;8691;50.828;4.700;2022-12-15T15:03:35;38.83;;;16.77;;
17151;SDS011;8691;50.828;4.700;2022-12-15T15:06:03;35.43;;;17.30;;
17151;SDS011;8691;50.828;4.700;2022-12-15T15:08:31;38.53;;;22.90;;
17151;SDS011;8691;50.828;4.700;2022-12-15T15:11:16;43.37;;;22.77;;
17151;SDS011;8691;50.828;4.700;2022-12-15T15:13:48;39.20;;;23.70;;
17151;SDS011;8691;50.828;4.700;2022-12-15T15:16:15;31.60;;;18.47;;
17151;SDS011;8691;50.828;4.700;2022-12-15T15:18:41;32.97;;;16.90;;
17151;SDS011;8691;50.828;4.700;2022-12-15T15:21:14;27.33;;;16.70;;
17151;SDS011;8691;50.828;4.700;2022-12-15T15:23:41;30.97;;;15.83;;
17151;SDS011;8691;50.828;4.700;2022-12-15T15:26:08;24.90;;;15.97;;
17151;SDS011;8691;50.828;4.700;2022-12-15T15:28:36;25.83;;;14.57;;
17151;SDS011;8691;50.828;4.700;2022-12-15T15:31:01;22.57;;;14.90;;
17151;SDS011;8691;50.828;4.700;2022-12-15T15:33:28;26.53;;;20.87;;
17151;SDS011;8691;50.828;4.700;2022-12-15T15:35:56;26.60;;;20.37;;
17151;SDS011;8691;50.828;4.700;2022-12-15T15:38:26;28.10;;;21.73;;
17151;SDS011;8691;50.828;4.700;2022-12-15T15:40:56;31.83;;;24.20;;
17151;SDS011;8691;50.828;4.700;2022-12-15T15:43:21;32.07;;;18.63;;
17151;SDS011;8691;50.828;4.700;2022-12-15T15:45:48;34.37;;;27.20;;
17151;SDS011;8691;50.828;4.700;2022-12-15T15:48:20;31.13;;;25.30;;
17151;SDS011;8691;50.828;4.700;2022-12-15T15:50:44;33.43;;;27.57;;
17151;SDS011;8691;50.828;4.700;2022-12-15T15:53:14;62.20;;;44.67;;
17151;SDS011;8691;50.828;4.700;2022-12-15T15:55:38;54.50;;;39.70;;
17151;SDS011;8691;50.828;4.700;2022-12-15T15:58:08;34.57;;;26.30;;
17151;SDS011;8691;50.828;4.700;2022-12-15T16:00:31;36.27;;;26.30;;
17151;SDS011;8691;50.828;4.700;2022-12-15T16:02:58;36.97;;;26.87;;
17151;SDS011;8691;50.828;4.700;2022-12-15T16:05:26;31.17;;;26.63;;
17151;SDS011;8691;50.828;4.700;2022-12-15T16:07:53;35.83;;;26.97;;
17151;SDS011;8691;50.828;4.700;2022-12-15T16:10:19;34.50;;;26.77;;
17151;SDS011;8691;50.828;4.700;2022-12-15T16:12:47;31.63;;;20.70;;
17151;SDS011;8691;50.828;4.700;2022-12-15T16:15:14;32.53;;;20.73;;
17151;SDS011;8691;50.828;4.700;2022-12-15T16:17:43;26.80;;;18.53;;